createdAt,value
2022-11-23T00:01:19.284Z,100.00
2022-11-23T00:03:48.708Z,100.00
2022-11-23T00:06:18.584Z,100.00
2022-11-23T00:08:46.828Z,100.00
2022-11-23T00:11:14.763Z,100.00
2022-11-23T00:13:43.034Z,100.00
2022-11-23T00:16:15.146Z,100.00
2022-11-23T00:18:44.323Z,100.00
2022-11-23T00:21:14.207Z,100.00
2022-11-23T00:23:44.078Z,100.00
2022-11-23T00:26:14.007Z,100.00
2022-11-23T00:28:42.103Z,100.00
2022-11-23T00:31:11.610Z,100.00
2022-11-23T00:33:40.429Z,100.00
2022-11-23T00:36:15.266Z,100.00
2022-11-23T00:38:44.687Z,100.00
2022-11-23T00:41:14.930Z,100.00
2022-11-23T00:43:43.622Z,100.00
2022-11-23T00:46:16.199Z,100.00
2022-11-23T00:48:44.369Z,100.00
2022-11-23T00:51:15.298Z,100.00
2022-11-23T00:53:43.587Z,100.00
2022-11-23T00:56:13.904Z,100.00
2022-11-23T00:58:43.890Z,100.00
2022-11-23T01:01:14.828Z,100.00
2022-11-23T01:03:44.796Z,100.00
2022-11-23T01:06:16.424Z,100.00
2022-11-23T01:08:49.740Z,100.00
2022-11-23T01:11:18.534Z,100.00
2022-11-23T01:13:46.807Z,100.00
2022-11-23T01:16:23.461Z,100.00
2022-11-23T01:18:53.764Z,100.00
2022-11-23T01:21:27.748Z,100.00
2022-11-23T01:23:55.524Z,100.00
2022-11-23T01:26:25.258Z,100.00
2022-11-23T01:28:53.012Z,100.00
2022-11-23T01:31:24.589Z,100.00
2022-11-23T01:33:54.382Z,100.00
2022-11-23T01:36:26.849Z,100.00
2022-11-23T01:38:56.696Z,100.00
2022-11-23T01:41:26.341Z,100.00
2022-11-23T01:43:55.205Z,100.00
2022-11-23T01:46:23.403Z,100.00
2022-11-23T01:48:54.239Z,100.00
2022-11-23T01:51:28.686Z,100.00
2022-11-23T01:54:03.717Z,100.00
2022-11-23T01:56:34.741Z,100.00
2022-11-23T01:59:16.661Z,100.00
2022-11-23T02:01:44.642Z,100.00
2022-11-23T02:04:16.475Z,100.00
2022-11-23T02:06:47.788Z,100.00
2022-11-23T02:09:18.010Z,100.00
2022-11-23T02:11:46.851Z,100.00
2022-11-23T02:17:55.862Z,100.00
2022-11-23T02:20:23.956Z,100.00
2022-11-23T02:23:03.377Z,100.00
2022-11-23T02:25:39.668Z,100.00
2022-11-23T02:28:09.349Z,100.00
2022-11-23T02:30:37.928Z,100.00
2022-11-23T02:33:06.305Z,100.00
2022-11-23T02:35:34.210Z,100.00
2022-11-23T02:38:03.789Z,100.00
2022-11-23T02:40:36.631Z,100.00
2022-11-23T02:43:04.420Z,100.00
2022-11-23T02:45:39.243Z,100.00
2022-11-23T02:48:07.611Z,100.00
2022-11-23T02:50:35.371Z,100.00
2022-11-23T02:53:04.008Z,100.00
2022-11-23T02:55:35.534Z,100.00
2022-11-23T02:58:03.140Z,100.00
2022-11-23T03:00:31.700Z,100.00
2022-11-23T03:03:02.292Z,100.00
2022-11-23T03:05:30.059Z,100.00
2022-11-23T03:08:00.108Z,100.00
2022-11-23T03:10:28.094Z,100.00
2022-11-23T03:12:57.823Z,100.00
2022-11-23T03:15:26.020Z,100.00
2022-11-23T03:17:54.476Z,100.00
2022-11-23T03:20:26.860Z,100.00
2022-11-23T03:22:54.666Z,100.00
2022-11-23T03:25:24.176Z,100.00
2022-11-23T03:27:53.329Z,100.00
2022-11-23T03:30:22.089Z,100.00
2022-11-23T03:32:49.875Z,100.00
2022-11-23T03:35:18.637Z,100.00
2022-11-23T03:37:48.829Z,100.00
2022-11-23T03:40:16.751Z,100.00
2022-11-23T03:42:44.445Z,100.00
2022-11-23T03:45:12.995Z,100.00
2022-11-23T03:47:40.756Z,100.00
2022-11-23T03:50:11.356Z,100.00
2022-11-23T03:52:40.040Z,100.00
2022-11-23T03:55:11.466Z,100.00
2022-11-23T03:57:40.124Z,100.00
2022-11-23T04:00:09.452Z,100.00
2022-11-23T04:02:37.068Z,100.00
2022-11-23T04:05:05.440Z,100.00
2022-11-23T04:07:33.167Z,100.00
2022-11-23T04:10:01.485Z,100.00
2022-11-23T04:12:31.477Z,100.00
2022-11-23T04:15:00.018Z,100.00
2022-11-23T04:17:29.471Z,100.00
2022-11-23T04:19:58.266Z,100.00
2022-11-23T04:22:25.964Z,100.00
2022-11-23T04:24:56.117Z,100.00
2022-11-23T04:27:23.814Z,100.00
2022-11-23T04:29:52.929Z,100.00
2022-11-23T04:32:20.558Z,100.00
2022-11-23T04:34:50.473Z,100.00
2022-11-23T04:37:19.406Z,100.00
2022-11-23T04:39:47.878Z,100.00
2022-11-23T04:42:15.574Z,100.00
2022-11-23T04:44:44.066Z,100.00
2022-11-23T04:47:13.513Z,100.00
2022-11-23T04:49:41.170Z,100.00
2022-11-23T04:52:09.598Z,100.00
2022-11-23T04:54:38.399Z,100.00
2022-11-23T04:57:07.055Z,100.00
2022-11-23T04:59:34.843Z,100.00
2022-11-23T05:02:02.939Z,100.00
2022-11-23T05:04:34.385Z,100.00
2022-11-23T05:07:02.876Z,100.00
2022-11-23T05:09:31.187Z,100.00
2022-11-23T05:12:00.056Z,100.00
2022-11-23T05:14:27.871Z,100.00
2022-11-23T05:16:56.194Z,100.00
2022-11-23T05:19:23.951Z,100.00
2022-11-23T05:21:54.417Z,100.00
2022-11-23T05:24:22.797Z,100.00
2022-11-23T05:26:55.960Z,100.00
2022-11-23T05:29:23.903Z,100.00
2022-11-23T05:31:52.191Z,100.00
2022-11-23T05:34:19.804Z,100.00
2022-11-23T05:36:49.837Z,100.00
2022-11-23T05:39:20.102Z,100.00
2022-11-23T05:41:48.080Z,100.00
2022-11-23T05:44:16.272Z,100.00
2022-11-23T05:46:43.875Z,100.00
2022-11-23T05:49:13.461Z,100.00
2022-11-23T05:51:41.210Z,100.00
2022-11-23T05:54:09.530Z,100.00
2022-11-23T05:56:40.630Z,100.00
2022-11-23T05:59:10.052Z,100.00
2022-11-23T06:01:38.064Z,100.00
2022-11-23T06:04:07.337Z,100.00
2022-11-23T06:06:35.798Z,100.00
2022-11-23T06:09:08.730Z,100.00
2022-11-23T06:11:38.182Z,100.00
2022-11-23T06:14:12.755Z,100.00
2022-11-23T06:16:42.198Z,100.00
2022-11-23T06:19:09.802Z,100.00
2022-11-23T06:21:38.350Z,100.00
2022-11-23T06:24:07.478Z,100.00
2022-11-23T06:26:36.273Z,100.00
2022-11-23T06:29:04.254Z,100.00
2022-11-23T06:31:33.478Z,100.00
2022-11-23T06:34:01.440Z,100.00
2022-11-23T06:36:29.179Z,100.00
2022-11-23T06:38:56.848Z,100.00
2022-11-23T06:41:32.050Z,100.00
2022-11-23T06:44:00.187Z,100.00
2022-11-23T06:46:27.794Z,100.00
2022-11-23T06:48:57.027Z,100.00
2022-11-23T06:51:26.083Z,100.00
2022-11-23T06:53:53.941Z,100.00
2022-11-23T06:56:21.977Z,100.00
2022-11-23T06:58:49.858Z,100.00
2022-11-23T07:02:19.179Z,100.00
2022-11-23T07:04:48.214Z,100.00
2022-11-23T07:07:16.084Z,100.00
2022-11-23T07:09:43.705Z,100.00
2022-11-23T07:12:13.187Z,100.00
2022-11-23T07:14:41.418Z,100.00
2022-11-23T07:17:11.745Z,100.00
2022-11-23T07:19:42.022Z,100.00
2022-11-23T07:22:14.546Z,100.00
2022-11-23T07:24:46.531Z,100.00
2022-11-23T07:27:14.965Z,100.00
2022-11-23T07:29:44.304Z,100.00
2022-11-23T07:32:14.651Z,100.00
2022-11-23T07:34:42.286Z,100.00
2022-11-23T07:37:10.068Z,100.00
2022-11-23T07:42:33.927Z,100.00
2022-11-23T07:46:03.855Z,100.00
2022-11-23T07:48:36.124Z,100.00
2022-11-23T07:51:04.309Z,100.00
2022-11-23T07:53:32.182Z,100.00
2022-11-23T07:56:01.129Z,100.00
2022-11-23T07:58:29.107Z,100.00
2022-11-23T08:00:57.020Z,100.00
2022-11-23T08:03:28.631Z,100.00
2022-11-23T08:05:56.845Z,100.00
2022-11-23T08:08:24.736Z,100.00
2022-11-23T08:10:54.113Z,100.00
2022-11-23T08:13:23.898Z,100.00
2022-11-23T08:15:55.238Z,100.00
2022-11-23T08:18:24.265Z,100.00
2022-11-23T08:20:51.809Z,100.00
2022-11-23T08:23:19.448Z,100.00
2022-11-23T08:25:47.399Z,100.00
2022-11-23T08:28:15.132Z,100.00
2022-11-23T08:30:44.397Z,100.00
2022-11-23T08:33:13.918Z,100.00
2022-11-23T08:35:42.760Z,100.00
2022-11-23T08:38:11.345Z,100.00
2022-11-23T08:40:39.770Z,100.00
2022-11-23T08:43:08.295Z,100.00
2022-11-23T08:45:35.928Z,100.00
2022-11-23T08:48:06.316Z,100.00
2022-11-23T08:50:35.392Z,100.00
2022-11-23T08:53:03.051Z,100.00
2022-11-23T08:55:30.992Z,100.00
2022-11-23T08:57:59.922Z,100.00
2022-11-23T09:00:28.513Z,100.00
2022-11-23T09:02:59.081Z,100.00
2022-11-23T09:05:28.466Z,100.00
2022-11-23T09:07:56.122Z,100.00
2022-11-23T09:10:23.974Z,100.00
2022-11-23T09:12:52.826Z,100.00
2022-11-23T09:15:20.540Z,100.00
2022-11-23T09:17:48.236Z,100.00
2022-11-23T09:20:16.981Z,100.00
2022-11-23T09:22:51.949Z,100.00
2022-11-23T09:25:19.989Z,100.00
2022-11-23T09:27:48.889Z,100.00
2022-11-23T09:30:18.177Z,100.00
2022-11-23T09:32:45.811Z,100.00
2022-11-23T09:35:13.380Z,100.00
2022-11-23T09:37:41.019Z,100.00
2022-11-23T09:40:13.273Z,100.00
2022-11-23T09:42:47.454Z,100.00
2022-11-23T09:45:20.429Z,100.00
2022-11-23T09:48:00.931Z,100.00
2022-11-23T09:50:30.347Z,100.00
2022-11-23T09:52:57.919Z,100.00
2022-11-23T09:55:35.541Z,100.00
2022-11-23T09:58:05.599Z,100.00
2022-11-23T10:00:38.793Z,100.00
2022-11-23T10:03:06.851Z,100.00
2022-11-23T10:05:39.562Z,100.00
2022-11-23T10:08:12.943Z,100.00
2022-11-23T10:10:45.050Z,100.00
2022-11-23T10:13:28.723Z,100.00
2022-11-23T10:16:08.014Z,100.00
2022-11-23T10:18:43.417Z,100.00
2022-11-23T10:21:18.234Z,100.00
2022-11-23T10:23:56.286Z,100.00
2022-11-23T10:26:29.619Z,100.00
2022-11-23T10:28:58.810Z,100.00
2022-11-23T10:31:27.353Z,100.00
2022-11-23T10:33:57.834Z,100.00
2022-11-23T10:36:25.449Z,100.00
2022-11-23T10:38:56.755Z,100.00
2022-11-23T10:41:24.530Z,100.00
2022-11-23T10:43:57.725Z,100.00
2022-11-23T10:46:43.458Z,100.00
2022-11-23T10:49:17.132Z,100.00
2022-11-23T10:51:53.542Z,100.00
2022-11-23T10:54:27.628Z,100.00
2022-11-23T10:56:56.401Z,100.00
2022-11-23T10:59:35.410Z,100.00
2022-11-23T11:02:12.685Z,100.00
2022-11-23T11:04:41.467Z,100.00
2022-11-23T11:07:29.873Z,100.00
2022-11-23T11:09:59.449Z,100.00
2022-11-23T11:12:28.966Z,100.00
2022-11-23T11:15:10.816Z,100.00
2022-11-23T11:17:41.098Z,100.00
2022-11-23T11:20:25.081Z,100.00
2022-11-23T11:22:52.768Z,100.00
2022-11-23T11:25:29.651Z,100.00
2022-11-23T11:27:58.356Z,100.00
2022-11-23T11:30:31.372Z,100.00
2022-11-23T11:33:04.965Z,100.00
2022-11-23T11:35:34.925Z,100.00
2022-11-23T11:38:05.805Z,100.00
2022-11-23T11:40:35.622Z,100.00
2022-11-23T11:43:05.665Z,100.00
2022-11-23T11:45:38.942Z,100.00
2022-11-23T11:48:12.130Z,100.00
2022-11-23T11:50:44.098Z,100.00
2022-11-23T11:53:14.983Z,100.00
2022-11-23T11:55:49.791Z,100.00
2022-11-23T11:58:18.298Z,100.00
2022-11-23T12:00:48.813Z,100.00
2022-11-23T12:03:23.875Z,100.00
2022-11-23T12:05:53.077Z,100.00
2022-11-23T12:08:24.893Z,100.00
2022-11-23T12:10:54.117Z,100.00
2022-11-23T12:13:24.007Z,100.00
2022-11-23T12:15:59.451Z,100.00
2022-11-23T12:18:36.693Z,100.00
2022-11-23T12:21:06.813Z,100.00
2022-11-23T12:23:44.875Z,100.00
2022-11-23T12:26:20.524Z,100.00
2022-11-23T12:29:12.605Z,100.00
2022-11-23T12:31:45.219Z,100.00
2022-11-23T12:34:25.954Z,100.00
2022-11-23T12:37:13.566Z,100.00
2022-11-23T12:39:59.643Z,100.00
2022-11-23T12:42:33.479Z,100.00
2022-11-23T12:45:10.978Z,100.00
2022-11-23T12:47:47.594Z,100.00
2022-11-23T12:50:23.157Z,100.00
2022-11-23T12:53:01.140Z,97.57
2022-11-23T12:55:34.087Z,97.79
2022-11-23T12:58:05.952Z,96.07
2022-11-23T13:00:37.652Z,97.26
2022-11-23T13:03:28.431Z,97.11
2022-11-23T13:06:27.315Z,97.89
2022-11-23T13:09:17.905Z,95.44
2022-11-23T13:12:02.444Z,96.52
2022-11-23T13:14:35.625Z,97.56
2022-11-23T13:17:13.001Z,96.71
2022-11-23T13:20:05.543Z,95.19
2022-11-23T13:22:34.390Z,94.97
2022-11-23T13:25:15.089Z,95.27
2022-11-23T13:27:44.578Z,98.30
2022-11-23T13:30:25.184Z,95.12
2022-11-23T13:32:58.656Z,94.09
2022-11-23T13:35:56.913Z,94.26
2022-11-23T13:38:38.618Z,93.21
2022-11-23T13:41:55.448Z,93.86
2022-11-23T13:44:25.701Z,91.00
2022-11-23T13:47:05.973Z,85.46
2022-11-23T13:49:36.908Z,84.54
2022-11-23T13:52:36.295Z,82.50
2022-11-23T13:55:21.973Z,84.39
2022-11-23T13:58:23.883Z,83.84
2022-11-23T14:00:53.505Z,85.90
2022-11-23T14:03:52.065Z,85.59
2022-11-23T14:06:23.966Z,85.54
2022-11-23T14:08:56.594Z,88.25
2022-11-23T14:11:24.965Z,89.06
2022-11-23T14:13:55.941Z,92.93
2022-11-23T14:16:40.529Z,93.27
2022-11-23T14:19:19.004Z,93.26
2022-11-23T14:21:54.112Z,94.67
2022-11-23T14:24:38.213Z,98.92
2022-11-23T14:27:46.291Z,95.65
2022-11-23T14:30:22.562Z,97.20
2022-11-23T14:33:07.232Z,97.64
2022-11-23T14:35:44.989Z,99.12
2022-11-23T14:38:46.437Z,100.00
2022-11-23T14:41:18.224Z,100.00
2022-11-23T14:43:47.780Z,100.00
2022-11-23T14:46:19.392Z,100.00
2022-11-23T14:48:49.801Z,100.00
2022-11-23T14:51:19.348Z,100.00
2022-11-23T14:53:51.080Z,100.00
2022-11-23T14:56:36.009Z,100.00
2022-11-23T14:59:06.049Z,100.00
2022-11-23T15:01:34.829Z,100.00
2022-11-23T15:04:09.566Z,100.00
2022-11-23T15:06:45.307Z,100.00
2022-11-23T15:09:18.565Z,100.00
2022-11-23T15:11:52.791Z,100.00
2022-11-23T15:14:27.112Z,100.00
2022-11-23T15:16:54.989Z,100.00
2022-11-23T15:19:28.693Z,100.00
2022-11-23T15:21:57.898Z,100.00
2022-11-23T15:24:27.204Z,100.00
2022-11-23T15:27:10.890Z,100.00
2022-11-23T15:29:52.873Z,100.00
2022-11-23T15:32:32.066Z,100.00
2022-11-23T15:35:04.535Z,100.00
2022-11-23T15:37:34.530Z,100.00
2022-11-23T15:40:14.304Z,100.00
2022-11-23T15:42:44.762Z,100.00
2022-11-23T15:45:35.123Z,100.00
2022-11-23T15:48:03.491Z,100.00
2022-11-23T15:50:34.409Z,100.00
2022-11-23T15:53:02.506Z,100.00
2022-11-23T15:55:31.875Z,100.00
2022-11-23T15:58:07.553Z,100.00
2022-11-23T16:00:35.605Z,100.00
2022-11-23T16:03:28.375Z,100.00
2022-11-23T16:06:25.650Z,100.00
2022-11-23T16:08:55.122Z,100.00
2022-11-23T16:11:31.076Z,100.00
2022-11-23T16:14:18.085Z,100.00
2022-11-23T16:16:47.791Z,100.00
2022-11-23T16:19:26.620Z,100.00
2022-11-23T16:22:01.987Z,100.00
2022-11-23T16:24:31.595Z,100.00
2022-11-23T16:27:00.775Z,100.00
2022-11-23T16:29:37.036Z,100.00
2022-11-23T16:32:07.180Z,100.00
2022-11-23T16:34:36.553Z,100.00
2022-11-23T16:37:10.384Z,100.00
2022-11-23T16:39:38.085Z,100.00
2022-11-23T16:42:05.818Z,100.00
2022-11-23T16:44:40.138Z,100.00
2022-11-23T16:47:23.337Z,100.00
2022-11-23T16:49:51.484Z,100.00
2022-11-23T16:52:19.376Z,100.00
2022-11-23T16:54:46.932Z,100.00
2022-11-23T16:57:29.135Z,100.00
2022-11-23T17:00:04.608Z,100.00
2022-11-23T17:02:37.299Z,100.00
2022-11-23T17:05:07.848Z,100.00
2022-11-23T17:07:35.537Z,100.00
2022-11-23T17:10:05.259Z,100.00
2022-11-23T17:12:33.041Z,100.00
2022-11-23T17:15:02.012Z,100.00
2022-11-23T17:17:30.482Z,100.00
2022-11-23T17:20:03.662Z,100.00
2022-11-23T17:22:32.775Z,100.00
2022-11-23T17:25:03.137Z,100.00
2022-11-23T17:27:34.034Z,100.00
2022-11-23T17:30:03.867Z,100.00
2022-11-23T17:32:31.946Z,100.00
2022-11-23T17:35:00.577Z,100.00
2022-11-23T17:37:29.080Z,100.00
2022-11-23T17:39:56.873Z,100.00
2022-11-23T17:42:27.010Z,100.00
2022-11-23T17:44:56.476Z,100.00
2022-11-23T17:47:28.897Z,100.00
2022-11-23T17:49:56.841Z,100.00
2022-11-23T17:52:26.149Z,100.00
2022-11-23T17:54:54.377Z,100.00
2022-11-23T17:57:25.004Z,100.00
2022-11-23T17:59:54.496Z,100.00
2022-11-23T18:02:23.430Z,100.00
2022-11-23T18:04:52.983Z,100.00
2022-11-23T18:07:22.549Z,100.00
2022-11-23T18:09:52.390Z,100.00
2022-11-23T18:12:21.627Z,100.00
2022-11-23T18:14:50.025Z,100.00
2022-11-23T18:17:19.057Z,100.00
2022-11-23T18:19:46.646Z,100.00
2022-11-23T18:22:16.465Z,100.00
2022-11-23T18:24:45.762Z,100.00
2022-11-23T18:27:14.537Z,100.00
2022-11-23T18:29:43.043Z,100.00
2022-11-23T18:32:11.259Z,100.00
2022-11-23T18:34:39.514Z,100.00
2022-11-23T18:37:08.253Z,100.00
2022-11-23T18:39:37.933Z,100.00
2022-11-23T18:42:07.015Z,100.00
2022-11-23T18:44:36.227Z,100.00
2022-11-23T18:47:05.468Z,100.00
2022-11-23T18:49:33.266Z,100.00
2022-11-23T18:52:01.987Z,100.00
2022-11-23T18:54:30.629Z,100.00
2022-11-23T18:57:01.221Z,100.00
2022-11-23T18:59:56.309Z,100.00
2022-11-23T19:02:18.453Z,100.00
2022-11-23T19:04:46.188Z,100.00
2022-11-23T19:07:14.046Z,100.00
2022-11-23T19:09:43.505Z,100.00
2022-11-23T19:12:17.408Z,100.00
2022-11-23T19:15:49.603Z,100.00
2022-11-23T19:18:19.255Z,100.00
2022-11-23T19:20:48.935Z,100.00
2022-11-23T19:23:23.527Z,100.00
2022-11-23T19:26:57.961Z,100.00
2022-11-23T19:29:28.854Z,100.00
2022-11-23T19:31:56.713Z,100.00
2022-11-23T19:34:24.282Z,100.00
2022-11-23T19:36:51.841Z,100.00
2022-11-23T19:39:20.333Z,100.00
2022-11-23T19:41:48.216Z,100.00
2022-11-23T19:44:16.466Z,100.00
2022-11-23T19:46:45.544Z,100.00
2022-11-23T19:49:13.135Z,100.00
2022-11-23T19:51:41.643Z,100.00
2022-11-23T19:54:12.127Z,100.00
2022-11-23T19:56:40.025Z,100.00
2022-11-23T19:59:07.662Z,100.00
2022-11-23T20:01:36.184Z,100.00
2022-11-23T20:04:09.667Z,100.00
2022-11-23T20:06:42.422Z,100.00
2022-11-23T20:09:11.848Z,100.00
2022-11-23T20:11:50.680Z,100.00
2022-11-23T20:14:21.406Z,100.00
2022-11-23T20:16:49.154Z,100.00
2022-11-23T20:19:20.444Z,100.00
2022-11-23T20:21:48.150Z,100.00
2022-11-23T20:24:16.474Z,100.00
2022-11-23T20:26:46.102Z,100.00
2022-11-23T20:29:14.790Z,100.00
2022-11-23T20:31:44.717Z,100.00
2022-11-23T20:34:20.453Z,100.00
2022-11-23T20:36:50.330Z,100.00
2022-11-23T20:39:18.637Z,100.00
2022-11-23T20:41:52.063Z,100.00
2022-11-23T20:44:20.831Z,100.00
2022-11-23T20:47:01.665Z,100.00
2022-11-23T20:49:30.721Z,100.00
2022-11-23T20:51:59.693Z,100.00
2022-11-23T20:54:29.077Z,100.00
2022-11-23T20:56:59.764Z,100.00
2022-11-23T20:59:27.489Z,100.00
2022-11-23T21:01:56.287Z,100.00
2022-11-23T21:04:25.294Z,100.00
2022-11-23T21:06:53.490Z,100.00
2022-11-23T21:09:22.668Z,100.00
2022-11-23T21:12:11.448Z,100.00
2022-11-23T21:14:40.665Z,100.00
2022-11-23T21:17:08.444Z,100.00
2022-11-23T21:19:37.919Z,100.00
2022-11-23T21:22:08.469Z,100.00
2022-11-23T21:24:39.407Z,100.00
2022-11-23T21:27:09.782Z,100.00
2022-11-23T21:29:39.264Z,100.00
2022-11-23T21:32:08.935Z,100.00
2022-11-23T21:34:36.970Z,100.00
2022-11-23T21:37:04.998Z,100.00
2022-11-23T21:39:35.215Z,100.00
2022-11-23T21:42:06.555Z,100.00
2022-11-23T21:44:36.549Z,100.00
2022-11-23T21:47:04.404Z,100.00
2022-11-23T21:49:32.103Z,100.00
2022-11-23T21:52:00.612Z,100.00
2022-11-23T21:54:28.219Z,100.00
2022-11-23T21:56:57.987Z,100.00
2022-11-23T21:59:26.914Z,100.00
2022-11-23T22:01:58.545Z,100.00
2022-11-23T22:04:27.460Z,100.00
2022-11-23T22:06:55.617Z,100.00
2022-11-23T22:09:24.292Z,100.00
2022-11-23T22:11:54.554Z,100.00
2022-11-23T22:14:22.543Z,100.00
2022-11-23T22:16:53.596Z,100.00
2022-11-23T22:19:21.506Z,100.00
2022-11-23T22:21:50.609Z,100.00
2022-11-23T22:24:22.313Z,100.00
2022-11-23T22:26:52.222Z,100.00
2022-11-23T22:29:20.922Z,100.00
2022-11-23T22:31:50.835Z,100.00
2022-11-23T22:34:20.485Z,100.00
2022-11-23T22:36:51.571Z,100.00
2022-11-23T22:39:20.063Z,100.00
2022-11-23T22:41:51.888Z,100.00
2022-11-23T22:44:19.616Z,100.00
2022-11-23T22:46:47.221Z,100.00
2022-11-23T22:49:15.738Z,100.00
2022-11-23T22:51:50.122Z,100.00
2022-11-23T22:54:18.669Z,100.00
2022-11-23T22:56:52.298Z,100.00
2022-11-23T22:59:20.587Z,100.00
2022-11-23T23:01:50.773Z,100.00
2022-11-23T23:04:18.613Z,100.00
2022-11-23T23:06:50.851Z,100.00
2022-11-23T23:09:18.647Z,100.00
2022-11-23T23:11:47.090Z,100.00
2022-11-23T23:14:15.965Z,100.00
2022-11-23T23:16:44.159Z,100.00
2022-11-23T23:19:13.645Z,100.00
2022-11-23T23:21:42.290Z,100.00
2022-11-23T23:24:15.726Z,100.00
2022-11-23T23:26:43.180Z,100.00
2022-11-23T23:29:11.771Z,100.00
2022-11-23T23:31:40.145Z,100.00
2022-11-23T23:34:10.243Z,100.00
2022-11-23T23:36:40.913Z,100.00
2022-11-23T23:39:09.347Z,100.00
2022-11-23T23:42:40.292Z,100.00
2022-11-23T23:45:10.949Z,100.00
2022-11-23T23:47:40.493Z,100.00
2022-11-23T23:50:09.834Z,100.00
2022-11-23T23:52:38.265Z,100.00
2022-11-23T23:55:06.876Z,100.00
2022-11-23T23:57:35.114Z,100.00
